sensor_id;sensor_type;location;lat;lon;timestamp;temperature;humidity
67182;DHT22;54114;53.524;49.396;2023-05-02T00:02:16;18.90;63.40
67182;DHT22;54114;53.524;49.396;2023-05-02T00:04:42;19.00;64.00
67182;DHT22;54114;53.524;49.396;2023-05-02T00:07:10;19.10;64.30
67182;DHT22;54114;53.524;49.396;2023-05-02T00:09:39;19.30;64.40
67182;DHT22;54114;53.524;49.396;2023-05-02T00:12:05;19.40;64.80
67182;DHT22;54114;53.524;49.396;2023-05-02T00:14:34;19.40;64.70
67182;DHT22;54114;53.524;49.396;2023-05-02T00:17:01;19.30;65.20
67182;DHT22;54114;53.524;49.396;2023-05-02T00:19:30;19.20;65.50
67182;DHT22;54114;53.524;49.396;2023-05-02T00:21:57;19.10;66.40
67182;DHT22;54114;53.524;49.396;2023-05-02T00:24:23;19.10;66.30
67182;DHT22;54114;53.524;49.396;2023-05-02T00:26:51;19.10;66.30
67182;DHT22;54114;53.524;49.396;2023-05-02T00:29:18;19.00;66.00
67182;DHT22;54114;53.524;49.396;2023-05-02T00:31:50;18.90;66.50
67182;DHT22;54114;53.524;49.396;2023-05-02T00:34:16;18.80;66.90
67182;DHT22;54114;53.524;49.396;2023-05-02T00:36:43;18.80;67.20
67182;DHT22;54114;53.524;49.396;2023-05-02T00:39:10;18.70;67.60
67182;DHT22;54114;53.524;49.396;2023-05-02T00:41:36;18.60;68.20
67182;DHT22;54114;53.524;49.396;2023-05-02T00:44:03;18.60;68.70
67182;DHT22;54114;53.524;49.396;2023-05-02T00:46:30;18.60;69.10
67182;DHT22;54114;53.524;49.396;2023-05-02T00:48:59;18.60;69.30
67182;DHT22;54114;53.524;49.396;2023-05-02T00:51:26;18.50;69.70
67182;DHT22;54114;53.524;49.396;2023-05-02T00:53:53;18.60;70.00
67182;DHT22;54114;53.524;49.396;2023-05-02T00:56:21;18.60;70.10
67182;DHT22;54114;53.524;49.396;2023-05-02T00:58:47;18.50;70.30
67182;DHT22;54114;53.524;49.396;2023-05-02T01:04:59;18.50;71.10
67182;DHT22;54114;53.524;49.396;2023-05-02T01:13:27;18.30;71.40
67182;DHT22;54114;53.524;49.396;2023-05-02T01:15:57;18.20;71.90
67182;DHT22;54114;53.524;49.396;2023-05-02T01:18:29;18.10;72.10
67182;DHT22;54114;53.524;49.396;2023-05-02T01:21:00;18.00;72.60
67182;DHT22;54114;53.524;49.396;2023-05-02T01:29:35;17.90;72.80
67182;DHT22;54114;53.524;49.396;2023-05-02T01:32:03;17.80;72.90
67182;DHT22;54114;53.524;49.396;2023-05-02T01:34:32;17.80;73.00
67182;DHT22;54114;53.524;49.396;2023-05-02T01:37:05;17.70;73.20
67182;DHT22;54114;53.524;49.396;2023-05-02T01:39:32;17.80;73.50
67182;DHT22;54114;53.524;49.396;2023-05-02T01:42:01;17.80;73.00
67182;DHT22;54114;53.524;49.396;2023-05-02T01:44:29;17.80;72.90
67182;DHT22;54114;53.524;49.396;2023-05-02T01:46:56;17.90;72.50
67182;DHT22;54114;53.524;49.396;2023-05-02T01:49:28;17.90;72.20
67182;DHT22;54114;53.524;49.396;2023-05-02T01:51:58;17.90;72.20
67182;DHT22;54114;53.524;49.396;2023-05-02T01:54:29;17.90;71.40
67182;DHT22;54114;53.524;49.396;2023-05-02T01:56:58;17.90;71.10
67182;DHT22;54114;53.524;49.396;2023-05-02T01:59:30;18.00;71.30
67182;DHT22;54114;53.524;49.396;2023-05-02T02:02:02;18.00;70.60
67182;DHT22;54114;53.524;49.396;2023-05-02T02:04:31;18.00;70.60
67182;DHT22;54114;53.524;49.396;2023-05-02T02:07:04;18.00;70.80
67182;DHT22;54114;53.524;49.396;2023-05-02T02:09:32;18.00;70.90
67182;DHT22;54114;53.524;49.396;2023-05-02T02:12:11;18.00;70.20
67182;DHT22;54114;53.524;49.396;2023-05-02T02:14:45;18.00;69.40
67182;DHT22;54114;53.524;49.396;2023-05-02T02:17:23;18.00;69.30
67182;DHT22;54114;53.524;49.396;2023-05-02T02:19:53;18.00;69.60
67182;DHT22;54114;53.524;49.396;2023-05-02T02:22:25;18.00;69.70
67182;DHT22;54114;53.524;49.396;2023-05-02T02:24:52;18.00;69.80
67182;DHT22;54114;53.524;49.396;2023-05-02T02:27:20;17.90;70.00
67182;DHT22;54114;53.524;49.396;2023-05-02T02:29:46;18.00;70.50
67182;DHT22;54114;53.524;49.396;2023-05-02T02:32:13;18.10;70.60
67182;DHT22;54114;53.524;49.396;2023-05-02T02:34:40;18.20;70.30
67182;DHT22;54114;53.524;49.396;2023-05-02T02:37:14;18.30;70.00
67182;DHT22;54114;53.524;49.396;2023-05-02T02:42:35;18.40;69.50
67182;DHT22;54114;53.524;49.396;2023-05-02T02:45:30;18.50;69.10
67182;DHT22;54114;53.524;49.396;2023-05-02T02:48:19;18.50;69.00
67182;DHT22;54114;53.524;49.396;2023-05-02T02:56:54;18.90;67.90
67182;DHT22;54114;53.524;49.396;2023-05-02T02:59:33;19.00;67.50
67182;DHT22;54114;53.524;49.396;2023-05-02T03:02:08;19.10;67.50
67182;DHT22;54114;53.524;49.396;2023-05-02T03:04:40;19.20;67.80
67182;DHT22;54114;53.524;49.396;2023-05-02T03:07:08;19.30;67.80
67182;DHT22;54114;53.524;49.396;2023-05-02T03:09:44;19.20;67.30
67182;DHT22;54114;53.524;49.396;2023-05-02T03:12:12;19.20;67.20
67182;DHT22;54114;53.524;49.396;2023-05-02T03:14:41;19.30;67.20
67182;DHT22;54114;53.524;49.396;2023-05-02T03:17:08;19.20;67.20
67182;DHT22;54114;53.524;49.396;2023-05-02T03:19:35;19.30;67.20
67182;DHT22;54114;53.524;49.396;2023-05-02T03:22:05;19.40;66.80
67182;DHT22;54114;53.524;49.396;2023-05-02T03:24:31;19.50;66.40
67182;DHT22;54114;53.524;49.396;2023-05-02T03:26:58;19.50;66.20
67182;DHT22;54114;53.524;49.396;2023-05-02T03:29:28;19.60;66.20
67182;DHT22;54114;53.524;49.396;2023-05-02T03:31:54;19.70;66.00
67182;DHT22;54114;53.524;49.396;2023-05-02T03:34:23;19.90;65.60
67182;DHT22;54114;53.524;49.396;2023-05-02T03:36:50;20.00;65.50
67182;DHT22;54114;53.524;49.396;2023-05-02T03:39:18;20.20;65.20
67182;DHT22;54114;53.524;49.396;2023-05-02T03:41:44;20.40;64.70
67182;DHT22;54114;53.524;49.396;2023-05-02T03:44:11;20.50;64.20
67182;DHT22;54114;53.524;49.396;2023-05-02T03:46:38;20.70;63.50
67182;DHT22;54114;53.524;49.396;2023-05-02T03:49:07;21.00;63.10
67182;DHT22;54114;53.524;49.396;2023-05-02T03:51:33;21.20;62.20
67182;DHT22;54114;53.524;49.396;2023-05-02T03:54:01;21.40;61.40
67182;DHT22;54114;53.524;49.396;2023-05-02T03:56:27;21.70;60.60
67182;DHT22;54114;53.524;49.396;2023-05-02T03:58:54;21.80;60.70
67182;DHT22;54114;53.524;49.396;2023-05-02T04:01:21;22.00;59.90
67182;DHT22;54114;53.524;49.396;2023-05-02T04:03:49;22.10;59.00
67182;DHT22;54114;53.524;49.396;2023-05-02T04:06:16;22.20;58.10
67182;DHT22;54114;53.524;49.396;2023-05-02T04:08:43;22.30;57.60
67182;DHT22;54114;53.524;49.396;2023-05-02T04:11:10;22.40;57.10
67182;DHT22;54114;53.524;49.396;2023-05-02T04:13:36;22.40;56.60
67182;DHT22;54114;53.524;49.396;2023-05-02T04:16:04;22.50;56.00
67182;DHT22;54114;53.524;49.396;2023-05-02T04:18:33;22.50;55.80
67182;DHT22;54114;53.524;49.396;2023-05-02T04:21:00;22.70;55.90
67182;DHT22;54114;53.524;49.396;2023-05-02T04:23:26;22.80;55.50
67182;DHT22;54114;53.524;49.396;2023-05-02T04:25:55;23.10;54.60
67182;DHT22;54114;53.524;49.396;2023-05-02T04:28:24;23.20;54.20
67182;DHT22;54114;53.524;49.396;2023-05-02T04:30:51;23.40;53.70
67182;DHT22;54114;53.524;49.396;2023-05-02T04:33:18;23.60;53.20
67182;DHT22;54114;53.524;49.396;2023-05-02T04:35:44;23.90;52.80
67182;DHT22;54114;53.524;49.396;2023-05-02T04:38:11;24.20;52.10
67182;DHT22;54114;53.524;49.396;2023-05-02T04:40:41;24.60;51.20
67182;DHT22;54114;53.524;49.396;2023-05-02T04:43:07;24.90;50.30
67182;DHT22;54114;53.524;49.396;2023-05-02T04:45:35;25.20;49.70
67182;DHT22;54114;53.524;49.396;2023-05-02T04:48:02;25.40;49.30
67182;DHT22;54114;53.524;49.396;2023-05-02T04:50:29;25.30;48.80
67182;DHT22;54114;53.524;49.396;2023-05-02T04:52:57;25.50;49.10
67182;DHT22;54114;53.524;49.396;2023-05-02T04:55:24;25.80;48.50
67182;DHT22;54114;53.524;49.396;2023-05-02T04:57:50;26.20;47.90
67182;DHT22;54114;53.524;49.396;2023-05-02T05:00:17;26.50;47.30
67182;DHT22;54114;53.524;49.396;2023-05-02T05:02:44;26.80;46.70
67182;DHT22;54114;53.524;49.396;2023-05-02T05:05:11;27.10;46.00
67182;DHT22;54114;53.524;49.396;2023-05-02T05:07:40;27.30;45.50
67182;DHT22;54114;53.524;49.396;2023-05-02T05:10:10;27.80;45.00
67182;DHT22;54114;53.524;49.396;2023-05-02T05:12:42;28.30;44.00
67182;DHT22;54114;53.524;49.396;2023-05-02T05:15:12;28.80;43.00
67182;DHT22;54114;53.524;49.396;2023-05-02T05:17:41;29.40;42.10
67182;DHT22;54114;53.524;49.396;2023-05-02T05:20:08;29.40;41.60
67182;DHT22;54114;53.524;49.396;2023-05-02T05:22:40;29.60;41.50
67182;DHT22;54114;53.524;49.396;2023-05-02T05:25:10;29.90;41.00
67182;DHT22;54114;53.524;49.396;2023-05-02T05:27:44;30.10;40.50
67182;DHT22;54114;53.524;49.396;2023-05-02T05:30:14;30.20;40.00
67182;DHT22;54114;53.524;49.396;2023-05-02T05:32:40;30.20;39.90
67182;DHT22;54114;53.524;49.396;2023-05-02T05:35:07;30.10;39.90
67182;DHT22;54114;53.524;49.396;2023-05-02T05:37:36;30.00;39.70
67182;DHT22;54114;53.524;49.396;2023-05-02T05:40:10;30.20;39.60
67182;DHT22;54114;53.524;49.396;2023-05-02T05:42:39;30.20;39.20
67182;DHT22;54114;53.524;49.396;2023-05-02T05:45:09;30.40;39.00
67182;DHT22;54114;53.524;49.396;2023-05-02T05:47:37;30.60;38.80
67182;DHT22;54114;53.524;49.396;2023-05-02T05:50:04;30.60;38.70
67182;DHT22;54114;53.524;49.396;2023-05-02T05:52:31;30.50;38.40
67182;DHT22;54114;53.524;49.396;2023-05-02T05:54:58;30.30;38.50
67182;DHT22;54114;53.524;49.396;2023-05-02T05:57:25;30.40;38.50
67182;DHT22;54114;53.524;49.396;2023-05-02T05:59:52;30.30;38.50
67182;DHT22;54114;53.524;49.396;2023-05-02T06:02:19;30.20;38.50
67182;DHT22;54114;53.524;49.396;2023-05-02T06:04:46;30.10;38.40
67182;DHT22;54114;53.524;49.396;2023-05-02T06:07:12;30.00;38.40
67182;DHT22;54114;53.524;49.396;2023-05-02T06:09:39;29.80;38.50
67182;DHT22;54114;53.524;49.396;2023-05-02T06:12:08;29.70;38.70
67182;DHT22;54114;53.524;49.396;2023-05-02T06:14:35;29.70;38.80
67182;DHT22;54114;53.524;49.396;2023-05-02T06:17:01;29.40;38.90
67182;DHT22;54114;53.524;49.396;2023-05-02T06:19:28;29.30;39.40
67182;DHT22;54114;53.524;49.396;2023-05-02T06:21:55;29.20;39.60
67182;DHT22;54114;53.524;49.396;2023-05-02T06:24:22;29.00;39.60
67182;DHT22;54114;53.524;49.396;2023-05-02T06:26:48;28.90;39.90
67182;DHT22;54114;53.524;49.396;2023-05-02T06:29:16;28.70;40.20
67182;DHT22;54114;53.524;49.396;2023-05-02T06:31:45;28.60;40.10
67182;DHT22;54114;53.524;49.396;2023-05-02T06:34:12;28.50;40.20
67182;DHT22;54114;53.524;49.396;2023-05-02T06:36:40;28.30;40.30
67182;DHT22;54114;53.524;49.396;2023-05-02T06:39:07;28.00;40.40
67182;DHT22;54114;53.524;49.396;2023-05-02T06:41:34;27.90;40.90
67182;DHT22;54114;53.524;49.396;2023-05-02T06:44:00;27.80;40.90
67182;DHT22;54114;53.524;49.396;2023-05-02T06:46:30;27.60;40.70
67182;DHT22;54114;53.524;49.396;2023-05-02T06:48:57;27.40;41.10
67182;DHT22;54114;53.524;49.396;2023-05-02T06:51:23;27.20;41.30
67182;DHT22;54114;53.524;49.396;2023-05-02T06:53:50;27.10;41.50
67182;DHT22;54114;53.524;49.396;2023-05-02T06:56:22;27.00;41.30
67182;DHT22;54114;53.524;49.396;2023-05-02T06:58:50;27.00;41.30
67182;DHT22;54114;53.524;49.396;2023-05-02T07:01:17;27.00;41.40
67182;DHT22;54114;53.524;49.396;2023-05-02T07:03:45;26.90;41.60
67182;DHT22;54114;53.524;49.396;2023-05-02T07:06:12;26.90;41.60
67182;DHT22;54114;53.524;49.396;2023-05-02T07:08:39;26.80;41.60
67182;DHT22;54114;53.524;49.396;2023-05-02T07:11:05;26.70;41.60
67182;DHT22;54114;53.524;49.396;2023-05-02T07:13:32;26.60;41.80
67182;DHT22;54114;53.524;49.396;2023-05-02T07:15:59;26.40;42.20
67182;DHT22;54114;53.524;49.396;2023-05-02T07:18:26;26.30;42.50
67182;DHT22;54114;53.524;49.396;2023-05-02T07:20:52;26.30;42.40
67182;DHT22;54114;53.524;49.396;2023-05-02T07:23:19;26.30;42.20
67182;DHT22;54114;53.524;49.396;2023-05-02T07:25:52;26.20;42.40
67182;DHT22;54114;53.524;49.396;2023-05-02T07:28:18;26.10;42.20
67182;DHT22;54114;53.524;49.396;2023-05-02T07:30:45;26.10;42.20
67182;DHT22;54114;53.524;49.396;2023-05-02T07:33:14;26.10;41.90
67182;DHT22;54114;53.524;49.396;2023-05-02T07:35:41;26.10;41.80
67182;DHT22;54114;53.524;49.396;2023-05-02T07:38:08;26.00;41.80
67182;DHT22;54114;53.524;49.396;2023-05-02T07:40:35;26.10;41.70
67182;DHT22;54114;53.524;49.396;2023-05-02T07:43:02;26.20;41.50
67182;DHT22;54114;53.524;49.396;2023-05-02T07:45:28;26.30;41.30
67182;DHT22;54114;53.524;49.396;2023-05-02T07:47:55;26.30;41.50
67182;DHT22;54114;53.524;49.396;2023-05-02T07:50:22;26.30;41.50
67182;DHT22;54114;53.524;49.396;2023-05-02T07:52:49;26.40;41.80
67182;DHT22;54114;53.524;49.396;2023-05-02T07:55:16;26.50;41.50
67182;DHT22;54114;53.524;49.396;2023-05-02T07:57:42;26.60;41.00
67182;DHT22;54114;53.524;49.396;2023-05-02T08:00:09;26.40;40.90
67182;DHT22;54114;53.524;49.396;2023-05-02T08:02:36;26.30;41.00
67182;DHT22;54114;53.524;49.396;2023-05-02T08:05:06;26.20;41.10
67182;DHT22;54114;53.524;49.396;2023-05-02T08:07:33;26.20;41.10
67182;DHT22;54114;53.524;49.396;2023-05-02T08:10:04;26.20;41.10
67182;DHT22;54114;53.524;49.396;2023-05-02T08:12:39;26.20;41.10
67182;DHT22;54114;53.524;49.396;2023-05-02T08:15:09;26.10;41.00
67182;DHT22;54114;53.524;49.396;2023-05-02T08:17:40;26.10;41.20
67182;DHT22;54114;53.524;49.396;2023-05-02T08:20:07;26.00;41.00
67182;DHT22;54114;53.524;49.396;2023-05-02T08:22:34;25.90;41.10
67182;DHT22;54114;53.524;49.396;2023-05-02T08:25:01;25.80;41.30
67182;DHT22;54114;53.524;49.396;2023-05-02T08:27:28;25.80;41.30
67182;DHT22;54114;53.524;49.396;2023-05-02T08:29:57;25.80;41.60
67182;DHT22;54114;53.524;49.396;2023-05-02T08:32:24;25.90;41.50
67182;DHT22;54114;53.524;49.396;2023-05-02T08:34:54;26.10;41.10
67182;DHT22;54114;53.524;49.396;2023-05-02T08:37:27;26.10;40.80
67182;DHT22;54114;53.524;49.396;2023-05-02T08:39:53;26.00;40.80
67182;DHT22;54114;53.524;49.396;2023-05-02T08:42:26;26.00;41.00
67182;DHT22;54114;53.524;49.396;2023-05-02T08:44:54;26.00;40.90
67182;DHT22;54114;53.524;49.396;2023-05-02T08:47:24;26.10;41.10
67182;DHT22;54114;53.524;49.396;2023-05-02T08:50:00;26.30;41.00
67182;DHT22;54114;53.524;49.396;2023-05-02T08:52:27;26.60;40.50
67182;DHT22;54114;53.524;49.396;2023-05-02T08:54:54;26.90;40.50
67182;DHT22;54114;53.524;49.396;2023-05-02T08:57:26;27.20;40.00
67182;DHT22;54114;53.524;49.396;2023-05-02T08:59:54;27.30;39.80
67182;DHT22;54114;53.524;49.396;2023-05-02T09:02:40;27.30;39.70
67182;DHT22;54114;53.524;49.396;2023-05-02T09:05:19;27.30;39.80
67182;DHT22;54114;53.524;49.396;2023-05-02T09:07:47;27.30;40.00
67182;DHT22;54114;53.524;49.396;2023-05-02T09:10:15;27.50;39.70
67182;DHT22;54114;53.524;49.396;2023-05-02T09:12:42;27.40;39.60
67182;DHT22;54114;53.524;49.396;2023-05-02T09:15:14;27.40;39.80
67182;DHT22;54114;53.524;49.396;2023-05-02T09:17:43;27.40;39.60
67182;DHT22;54114;53.524;49.396;2023-05-02T09:20:15;27.40;39.60
67182;DHT22;54114;53.524;49.396;2023-05-02T09:22:51;27.30;39.60
67182;DHT22;54114;53.524;49.396;2023-05-02T09:25:22;27.20;39.70
67182;DHT22;54114;53.524;49.396;2023-05-02T09:27:53;27.10;39.80
67182;DHT22;54114;53.524;49.396;2023-05-02T09:30:28;26.90;39.80
67182;DHT22;54114;53.524;49.396;2023-05-02T09:32:58;26.70;40.20
67182;DHT22;54114;53.524;49.396;2023-05-02T09:35:24;26.50;40.50
67182;DHT22;54114;53.524;49.396;2023-05-02T09:37:55;26.20;40.80
67182;DHT22;54114;53.524;49.396;2023-05-02T09:40:25;26.00;41.10
67182;DHT22;54114;53.524;49.396;2023-05-02T09:42:58;25.80;41.50
67182;DHT22;54114;53.524;49.396;2023-05-02T09:45:29;25.50;42.00
67182;DHT22;54114;53.524;49.396;2023-05-02T09:48:03;25.30;42.30
67182;DHT22;54114;53.524;49.396;2023-05-02T09:50:38;25.30;42.50
67182;DHT22;54114;53.524;49.396;2023-05-02T09:53:08;25.10;42.60
67182;DHT22;54114;53.524;49.396;2023-05-02T09:55:36;25.00;42.90
67182;DHT22;54114;53.524;49.396;2023-05-02T09:58:05;24.90;43.00
67182;DHT22;54114;53.524;49.396;2023-05-02T10:00:42;24.90;43.20
67182;DHT22;54114;53.524;49.396;2023-05-02T10:03:10;24.70;43.30
67182;DHT22;54114;53.524;49.396;2023-05-02T10:05:46;24.60;43.60
67182;DHT22;54114;53.524;49.396;2023-05-02T10:08:13;24.40;43.80
67182;DHT22;54114;53.524;49.396;2023-05-02T10:10:46;24.20;44.00
67182;DHT22;54114;53.524;49.396;2023-05-02T10:13:18;24.20;44.40
67182;DHT22;54114;53.524;49.396;2023-05-02T10:15:57;24.50;44.40
67182;DHT22;54114;53.524;49.396;2023-05-02T10:19:06;24.80;43.90
67182;DHT22;54114;53.524;49.396;2023-05-02T10:21:38;25.00;43.50
67182;DHT22;54114;53.524;49.396;2023-05-02T10:24:05;24.90;43.30
67182;DHT22;54114;53.524;49.396;2023-05-02T10:26:33;24.80;43.50
67182;DHT22;54114;53.524;49.396;2023-05-02T10:29:01;24.70;43.90
67182;DHT22;54114;53.524;49.396;2023-05-02T10:31:35;24.60;44.10
67182;DHT22;54114;53.524;49.396;2023-05-02T10:34:05;24.50;44.40
67182;DHT22;54114;53.524;49.396;2023-05-02T10:36:35;24.60;44.40
67182;DHT22;54114;53.524;49.396;2023-05-02T10:39:03;24.70;44.60
67182;DHT22;54114;53.524;49.396;2023-05-02T10:41:35;24.60;44.60
67182;DHT22;54114;53.524;49.396;2023-05-02T10:44:03;24.30;44.70
67182;DHT22;54114;53.524;49.396;2023-05-02T10:46:39;24.20;45.00
67182;DHT22;54114;53.524;49.396;2023-05-02T10:49:08;24.10;45.10
67182;DHT22;54114;53.524;49.396;2023-05-02T10:51:40;24.10;45.20
67182;DHT22;54114;53.524;49.396;2023-05-02T10:54:17;24.00;45.30
67182;DHT22;54114;53.524;49.396;2023-05-02T10:59:41;23.60;45.70
67182;DHT22;54114;53.524;49.396;2023-05-02T11:05:02;23.60;46.00
67182;DHT22;54114;53.524;49.396;2023-05-02T11:07:31;23.60;46.20
67182;DHT22;54114;53.524;49.396;2023-05-02T11:12:48;23.60;46.40
67182;DHT22;54114;53.524;49.396;2023-05-02T11:18:06;23.60;46.70
67182;DHT22;54114;53.524;49.396;2023-05-02T11:20:35;23.60;46.60
67182;DHT22;54114;53.524;49.396;2023-05-02T11:25:51;23.70;46.80
67182;DHT22;54114;53.524;49.396;2023-05-02T11:28:43;23.80;46.70
67182;DHT22;54114;53.524;49.396;2023-05-02T11:34:00;23.80;46.40
67182;DHT22;54114;53.524;49.396;2023-05-02T11:36:33;23.80;46.40
67182;DHT22;54114;53.524;49.396;2023-05-02T11:39:03;23.80;46.20
67182;DHT22;54114;53.524;49.396;2023-05-02T11:41:44;23.80;46.50
67182;DHT22;54114;53.524;49.396;2023-05-02T11:44:18;23.80;46.40
67182;DHT22;54114;53.524;49.396;2023-05-02T11:46:50;23.80;46.60
67182;DHT22;54114;53.524;49.396;2023-05-02T11:49:22;23.70;46.60
67182;DHT22;54114;53.524;49.396;2023-05-02T11:51:51;23.80;46.50
67182;DHT22;54114;53.524;49.396;2023-05-02T11:54:20;23.90;46.50
67182;DHT22;54114;53.524;49.396;2023-05-02T11:56:53;24.10;46.00
67182;DHT22;54114;53.524;49.396;2023-05-02T11:59:26;24.10;45.70
67182;DHT22;54114;53.524;49.396;2023-05-02T12:01:58;24.20;45.70
67182;DHT22;54114;53.524;49.396;2023-05-02T12:04:32;24.10;45.50
67182;DHT22;54114;53.524;49.396;2023-05-02T12:07:11;24.10;45.70
67182;DHT22;54114;53.524;49.396;2023-05-02T12:09:52;23.90;45.40
67182;DHT22;54114;53.524;49.396;2023-05-02T12:12:20;23.80;45.80
67182;DHT22;54114;53.524;49.396;2023-05-02T12:14:49;23.80;45.90
67182;DHT22;54114;53.524;49.396;2023-05-02T12:17:19;23.90;45.40
67182;DHT22;54114;53.524;49.396;2023-05-02T12:19:49;23.80;45.30
67182;DHT22;54114;53.524;49.396;2023-05-02T12:22:17;23.80;45.30
67182;DHT22;54114;53.524;49.396;2023-05-02T12:24:43;23.70;45.10
67182;DHT22;54114;53.524;49.396;2023-05-02T12:27:14;23.60;45.10
67182;DHT22;54114;53.524;49.396;2023-05-02T12:29:43;23.50;45.30
67182;DHT22;54114;53.524;49.396;2023-05-02T12:32:13;23.60;45.50
67182;DHT22;54114;53.524;49.396;2023-05-02T12:34:48;23.70;45.20
67182;DHT22;54114;53.524;49.396;2023-05-02T12:37:25;23.70;45.10
67182;DHT22;54114;53.524;49.396;2023-05-02T12:39:55;23.70;45.10
67182;DHT22;54114;53.524;49.396;2023-05-02T12:42:27;23.60;45.20
67182;DHT22;54114;53.524;49.396;2023-05-02T12:44:53;23.50;45.30
67182;DHT22;54114;53.524;49.396;2023-05-02T12:47:21;23.50;45.30
67182;DHT22;54114;53.524;49.396;2023-05-02T12:49:58;23.40;45.50
67182;DHT22;54114;53.524;49.396;2023-05-02T12:52:47;23.50;45.70
67182;DHT22;54114;53.524;49.396;2023-05-02T12:55:19;23.70;45.50
67182;DHT22;54114;53.524;49.396;2023-05-02T12:57:47;23.70;45.30
67182;DHT22;54114;53.524;49.396;2023-05-02T13:00:25;23.70;45.30
67182;DHT22;54114;53.524;49.396;2023-05-02T13:02:52;23.60;45.40
67182;DHT22;54114;53.524;49.396;2023-05-02T13:05:23;23.60;45.30
67182;DHT22;54114;53.524;49.396;2023-05-02T13:07:53;23.50;45.40
67182;DHT22;54114;53.524;49.396;2023-05-02T13:10:21;23.20;45.70
67182;DHT22;54114;53.524;49.396;2023-05-02T13:12:53;23.10;46.20
67182;DHT22;54114;53.524;49.396;2023-05-02T13:15:23;22.90;46.40
67182;DHT22;54114;53.524;49.396;2023-05-02T13:17:50;22.90;46.90
67182;DHT22;54114;53.524;49.396;2023-05-02T13:20:17;22.90;46.90
67182;DHT22;54114;53.524;49.396;2023-05-02T13:22:44;22.90;47.00
67182;DHT22;54114;53.524;49.396;2023-05-02T13:25:13;22.90;47.10
67182;DHT22;54114;53.524;49.396;2023-05-02T13:27:44;23.00;47.00
67182;DHT22;54114;53.524;49.396;2023-05-02T13:30:11;22.90;47.10
67182;DHT22;54114;53.524;49.396;2023-05-02T13:32:38;22.90;47.10
67182;DHT22;54114;53.524;49.396;2023-05-02T13:35:07;22.90;47.00
67182;DHT22;54114;53.524;49.396;2023-05-02T13:37:39;22.80;47.40
67182;DHT22;54114;53.524;49.396;2023-05-02T13:40:07;22.80;47.40
67182;DHT22;54114;53.524;49.396;2023-05-02T13:42:34;22.70;47.50
67182;DHT22;54114;53.524;49.396;2023-05-02T13:45:01;22.70;47.70
67182;DHT22;54114;53.524;49.396;2023-05-02T13:47:34;22.60;47.90
67182;DHT22;54114;53.524;49.396;2023-05-02T13:50:01;22.60;49.10
67182;DHT22;54114;53.524;49.396;2023-05-02T13:52:30;22.50;50.40
67182;DHT22;54114;53.524;49.396;2023-05-02T13:55:01;22.40;50.80
67182;DHT22;54114;53.524;49.396;2023-05-02T13:57:33;22.40;51.20
67182;DHT22;54114;53.524;49.396;2023-05-02T14:00:02;22.30;51.40
67182;DHT22;54114;53.524;49.396;2023-05-02T14:02:34;22.20;51.60
67182;DHT22;54114;53.524;49.396;2023-05-02T14:05:04;22.20;51.60
67182;DHT22;54114;53.524;49.396;2023-05-02T14:07:31;22.00;51.60
67182;DHT22;54114;53.524;49.396;2023-05-02T14:10:00;21.80;51.70
67182;DHT22;54114;53.524;49.396;2023-05-02T14:12:26;21.50;51.60
67182;DHT22;54114;53.524;49.396;2023-05-02T14:14:56;21.30;52.10
67182;DHT22;54114;53.524;49.396;2023-05-02T14:17:22;21.00;52.40
67182;DHT22;54114;53.524;49.396;2023-05-02T14:19:55;20.80;52.80
67182;DHT22;54114;53.524;49.396;2023-05-02T14:22:24;20.70;53.10
67182;DHT22;54114;53.524;49.396;2023-05-02T14:24:55;20.50;53.20
67182;DHT22;54114;53.524;49.396;2023-05-02T14:27:22;20.50;53.20
67182;DHT22;54114;53.524;49.396;2023-05-02T14:29:55;20.40;53.20
67182;DHT22;54114;53.524;49.396;2023-05-02T14:32:26;20.40;53.20
67182;DHT22;54114;53.524;49.396;2023-05-02T14:35:00;20.30;53.50
67182;DHT22;54114;53.524;49.396;2023-05-02T14:37:29;20.30;54.00
67182;DHT22;54114;53.524;49.396;2023-05-02T14:39:58;20.10;54.60
67182;DHT22;54114;53.524;49.396;2023-05-02T14:42:27;19.90;55.00
67182;DHT22;54114;53.524;49.396;2023-05-02T14:44:56;19.70;55.60
67182;DHT22;54114;53.524;49.396;2023-05-02T14:47:23;19.50;56.40
67182;DHT22;54114;53.524;49.396;2023-05-02T14:49:52;19.40;56.60
67182;DHT22;54114;53.524;49.396;2023-05-02T14:52:19;19.30;56.50
67182;DHT22;54114;53.524;49.396;2023-05-02T14:54:46;19.20;56.70
67182;DHT22;54114;53.524;49.396;2023-05-02T14:57:13;19.10;57.20
67182;DHT22;54114;53.524;49.396;2023-05-02T14:59:40;19.00;57.30
67182;DHT22;54114;53.524;49.396;2023-05-02T15:02:07;18.90;57.60
67182;DHT22;54114;53.524;49.396;2023-05-02T15:04:34;18.80;57.90
67182;DHT22;54114;53.524;49.396;2023-05-02T15:07:01;18.60;58.30
67182;DHT22;54114;53.524;49.396;2023-05-02T15:09:28;18.50;58.60
67182;DHT22;54114;53.524;49.396;2023-05-02T15:11:55;18.50;58.90
67182;DHT22;54114;53.524;49.396;2023-05-02T15:14:22;18.60;58.80
67182;DHT22;54114;53.524;49.396;2023-05-02T15:16:49;18.50;58.50
67182;DHT22;54114;53.524;49.396;2023-05-02T15:19:18;18.50;58.50
67182;DHT22;54114;53.524;49.396;2023-05-02T15:21:50;18.50;58.40
67182;DHT22;54114;53.524;49.396;2023-05-02T15:24:18;18.40;58.40
67182;DHT22;54114;53.524;49.396;2023-05-02T15:26:47;18.30;58.70
67182;DHT22;54114;53.524;49.396;2023-05-02T15:29:14;18.20;59.10
67182;DHT22;54114;53.524;49.396;2023-05-02T15:31:41;18.20;59.40
67182;DHT22;54114;53.524;49.396;2023-05-02T15:34:08;18.10;59.60
67182;DHT22;54114;53.524;49.396;2023-05-02T15:36:37;18.10;59.60
67182;DHT22;54114;53.524;49.396;2023-05-02T15:39:04;18.10;59.60
67182;DHT22;54114;53.524;49.396;2023-05-02T15:41:31;18.10;59.50
67182;DHT22;54114;53.524;49.396;2023-05-02T15:44:00;18.00;59.70
67182;DHT22;54114;53.524;49.396;2023-05-02T15:46:31;18.00;59.70
67182;DHT22;54114;53.524;49.396;2023-05-02T15:48:58;18.00;60.00
67182;DHT22;54114;53.524;49.396;2023-05-02T15:51:25;18.00;60.10
67182;DHT22;54114;53.524;49.396;2023-05-02T15:53:51;18.00;60.00
67182;DHT22;54114;53.524;49.396;2023-05-02T15:56:18;18.00;59.90
67182;DHT22;54114;53.524;49.396;2023-05-02T15:58:50;18.00;59.80
67182;DHT22;54114;53.524;49.396;2023-05-02T16:01:19;18.10;59.90
67182;DHT22;54114;53.524;49.396;2023-05-02T16:03:49;18.10;59.80
67182;DHT22;54114;53.524;49.396;2023-05-02T16:06:18;18.00;59.80
67182;DHT22;54114;53.524;49.396;2023-05-02T16:08:45;17.90;60.00
67182;DHT22;54114;53.524;49.396;2023-05-02T16:11:17;17.80;60.30